Главная страница
METAR-TAF:

METAR-TAF

Аэропорты :

Тромсё, Норвегия

широта: 69-41N, долгота: 018-55E, высота над уровнем моря: 1 м

Текущие метеонаблюдения

Эта сводка был подготовлена 23 минут назад, в 16:20 UTC
Ветер 11 Узел от северо-северо-восточный
Температура 14°C
Влажность 55%
Давление 1013 hPa
Видимость 10 км и более
Отдельные облака на высоте 5000 фута

METAR: ENTC 221620Z 03011KT 9999 SCT050 14/05 Q1013 NOSIG RMK WIND 2600FT 13006KT

Время: 18:43 (16:43 UTC)

Прогноз

Эта сводка был подготовлена 5 часа и 43 минут назад, в 11:00 UTC
Прогноз действительный с 22-го 12 UTC до 23-го 12 UTC
Ветер 6 Узел от северо-северо-восточный
Видимость 10 км и более
Рассеянная облачность на высоте 5000 фута

TAF: ENTC 221100Z 2212/2312 03006KT 9999 BKN050

Метеонаблюдения и прогнозы для более 4000 аэропортов (сводки METAR и TAF).

Имеющиеся станции представлены на карте желтыми и красными точками.

Чтобы увидеть название станции, наведите на нее мышь.

Затем щелкните, чтобы увидеть метеонаблюдения и метеопрогнозы.

Управление картой: чтобы увеличить масштаб, щелкните зеленые кнопки с черным крестиком; чтобы уменьшить масштаб, щелкните зеленую кнопку с тире; для просмотра соседних карт щелкайте зеленые стрелки.


METAR-TAF: